sensor_id;sensor_type;location;lat;lon;timestamp;P1;durP1;ratioP1;P2;durP2;ratioP2
31308;SDS011;17936;52.446;10.840;2022-08-19T00:00:15;16.30;;;8.98;;
31308;SDS011;17936;52.446;10.840;2022-08-19T00:02:41;15.95;;;9.02;;
31308;SDS011;17936;52.446;10.840;2022-08-19T00:05:08;13.40;;;8.20;;
31308;SDS011;17936;52.446;10.840;2022-08-19T00:07:35;13.30;;;9.00;;
31308;SDS011;17936;52.446;10.840;2022-08-19T00:10:01;12.65;;;8.48;;
31308;SDS011;17936;52.446;10.840;2022-08-19T00:12:28;11.52;;;8.27;;
31308;SDS011;17936;52.446;10.840;2022-08-19T00:14:53;16.98;;;8.55;;
31308;SDS011;17936;52.446;10.840;2022-08-19T00:17:19;12.55;;;8.27;;
31308;SDS011;17936;52.446;10.840;2022-08-19T00:19:45;10.40;;;8.07;;
31308;SDS011;17936;52.446;10.840;2022-08-19T00:22:11;13.13;;;8.18;;
31308;SDS011;17936;52.446;10.840;2022-08-19T00:24:36;11.20;;;7.80;;
31308;SDS011;17936;52.446;10.840;2022-08-19T00:27:03;16.00;;;7.88;;
31308;SDS011;17936;52.446;10.840;2022-08-19T00:29:30;15.13;;;8.95;;
31308;SDS011;17936;52.446;10.840;2022-08-19T00:31:56;13.45;;;8.05;;
31308;SDS011;17936;52.446;10.840;2022-08-19T00:34:23;14.98;;;8.85;;
31308;SDS011;17936;52.446;10.840;2022-08-19T00:36:50;12.73;;;8.25;;
31308;SDS011;17936;52.446;10.840;2022-08-19T00:39:15;21.23;;;8.73;;
31308;SDS011;17936;52.446;10.840;2022-08-19T00:41:42;15.50;;;8.50;;
31308;SDS011;17936;52.446;10.840;2022-08-19T00:44:14;14.93;;;8.05;;
31308;SDS011;17936;52.446;10.840;2022-08-19T00:46:45;14.00;;;8.27;;
31308;SDS011;17936;52.446;10.840;2022-08-19T00:49:16;14.68;;;8.63;;
31308;SDS011;17936;52.446;10.840;2022-08-19T00:51:50;12.05;;;7.88;;
31308;SDS011;17936;52.446;10.840;2022-08-19T00:54:18;13.55;;;8.10;;
31308;SDS011;17936;52.446;10.840;2022-08-19T00:56:46;14.18;;;8.90;;
31308;SDS011;17936;52.446;10.840;2022-08-19T00:59:13;13.65;;;8.60;;
31308;SDS011;17936;52.446;10.840;2022-08-19T01:01:41;14.05;;;8.55;;
31308;SDS011;17936;52.446;10.840;2022-08-19T01:04:08;13.68;;;8.25;;
31308;SDS011;17936;52.446;10.840;2022-08-19T01:06:35;15.73;;;9.35;;
31308;SDS011;17936;52.446;10.840;2022-08-19T01:09:01;10.93;;;8.52;;
31308;SDS011;17936;52.446;10.840;2022-08-19T01:11:27;13.68;;;8.57;;
31308;SDS011;17936;52.446;10.840;2022-08-19T01:13:55;11.73;;;9.10;;
31308;SDS011;17936;52.446;10.840;2022-08-19T01:16:22;13.98;;;8.65;;
31308;SDS011;17936;52.446;10.840;2022-08-19T01:18:49;16.08;;;7.70;;
31308;SDS011;17936;52.446;10.840;2022-08-19T01:21:22;11.82;;;8.57;;
31308;SDS011;17936;52.446;10.840;2022-08-19T01:23:54;12.32;;;7.78;;
31308;SDS011;17936;52.446;10.840;2022-08-19T01:26:22;11.68;;;8.43;;
31308;SDS011;17936;52.446;10.840;2022-08-19T01:28:49;12.38;;;8.60;;
31308;SDS011;17936;52.446;10.840;2022-08-19T01:31:19;11.23;;;7.35;;
31308;SDS011;17936;52.446;10.840;2022-08-19T01:33:47;15.38;;;7.78;;
31308;SDS011;17936;52.446;10.840;2022-08-19T01:36:15;13.45;;;7.90;;
31308;SDS011;17936;52.446;10.840;2022-08-19T01:38:50;10.85;;;7.30;;
31308;SDS011;17936;52.446;10.840;2022-08-19T01:41:17;17.10;;;8.43;;
31308;SDS011;17936;52.446;10.840;2022-08-19T01:43:43;13.35;;;8.15;;
31308;SDS011;17936;52.446;10.840;2022-08-19T01:46:09;16.60;;;8.27;;
31308;SDS011;17936;52.446;10.840;2022-08-19T01:48:36;16.45;;;8.30;;
31308;SDS011;17936;52.446;10.840;2022-08-19T01:51:04;14.15;;;7.60;;
31308;SDS011;17936;52.446;10.840;2022-08-19T01:53:30;14.20;;;7.97;;
31308;SDS011;17936;52.446;10.840;2022-08-19T01:55:56;14.35;;;7.78;;
31308;SDS011;17936;52.446;10.840;2022-08-19T01:58:23;12.07;;;7.75;;
31308;SDS011;17936;52.446;10.840;2022-08-19T02:00:54;14.32;;;8.48;;
31308;SDS011;17936;52.446;10.840;2022-08-19T02:03:19;16.55;;;8.70;;
31308;SDS011;17936;52.446;10.840;2022-08-19T02:05:45;13.05;;;8.23;;
31308;SDS011;17936;52.446;10.840;2022-08-19T02:08:10;17.23;;;8.68;;
31308;SDS011;17936;52.446;10.840;2022-08-19T02:10:40;13.77;;;8.90;;
31308;SDS011;17936;52.446;10.840;2022-08-19T02:13:07;16.00;;;8.38;;
31308;SDS011;17936;52.446;10.840;2022-08-19T02:15:33;12.75;;;8.93;;
31308;SDS011;17936;52.446;10.840;2022-08-19T02:17:58;16.80;;;8.05;;
31308;SDS011;17936;52.446;10.840;2022-08-19T02:20:24;13.57;;;8.52;;
31308;SDS011;17936;52.446;10.840;2022-08-19T02:22:49;13.02;;;8.57;;
31308;SDS011;17936;52.446;10.840;2022-08-19T02:25:15;14.45;;;9.05;;
31308;SDS011;17936;52.446;10.840;2022-08-19T02:27:41;14.30;;;8.10;;
31308;SDS011;17936;52.446;10.840;2022-08-19T02:30:09;13.63;;;7.70;;
31308;SDS011;17936;52.446;10.840;2022-08-19T02:32:37;17.55;;;8.18;;
31308;SDS011;17936;52.446;10.840;2022-08-19T02:35:03;16.83;;;8.02;;
31308;SDS011;17936;52.446;10.840;2022-08-19T02:37:29;13.77;;;7.65;;
31308;SDS011;17936;52.446;10.840;2022-08-19T02:40:13;14.23;;;7.93;;
31308;SDS011;17936;52.446;10.840;2022-08-19T02:42:39;12.13;;;7.65;;
31308;SDS011;17936;52.446;10.840;2022-08-19T02:45:05;13.45;;;8.77;;
31308;SDS011;17936;52.446;10.840;2022-08-19T02:47:32;12.50;;;7.32;;
31308;SDS011;17936;52.446;10.840;2022-08-19T02:49:58;14.73;;;7.82;;
31308;SDS011;17936;52.446;10.840;2022-08-19T02:52:26;13.02;;;8.23;;
31308;SDS011;17936;52.446;10.840;2022-08-19T02:54:52;14.48;;;8.07;;
31308;SDS011;17936;52.446;10.840;2022-08-19T02:57:17;12.73;;;7.80;;
31308;SDS011;17936;52.446;10.840;2022-08-19T02:59:43;13.20;;;7.55;;
31308;SDS011;17936;52.446;10.840;2022-08-19T03:02:08;12.43;;;7.68;;
31308;SDS011;17936;52.446;10.840;2022-08-19T03:04:34;13.55;;;8.02;;
31308;SDS011;17936;52.446;10.840;2022-08-19T03:06:59;12.77;;;7.68;;
31308;SDS011;17936;52.446;10.840;2022-08-19T03:09:25;13.73;;;8.40;;
31308;SDS011;17936;52.446;10.840;2022-08-19T03:11:50;13.50;;;8.10;;
31308;SDS011;17936;52.446;10.840;2022-08-19T03:14:16;13.18;;;8.05;;
31308;SDS011;17936;52.446;10.840;2022-08-19T03:16:44;14.35;;;7.63;;
31308;SDS011;17936;52.446;10.840;2022-08-19T03:19:11;19.55;;;8.65;;
31308;SDS011;17936;52.446;10.840;2022-08-19T03:21:38;12.55;;;8.55;;
31308;SDS011;17936;52.446;10.840;2022-08-19T03:24:05;14.40;;;9.18;;
31308;SDS011;17936;52.446;10.840;2022-08-19T03:26:33;16.25;;;9.27;;
31308;SDS011;17936;52.446;10.840;2022-08-19T03:29:03;14.45;;;9.43;;
31308;SDS011;17936;52.446;10.840;2022-08-19T03:31:29;14.50;;;8.88;;
31308;SDS011;17936;52.446;10.840;2022-08-19T03:33:56;14.82;;;8.70;;
31308;SDS011;17936;52.446;10.840;2022-08-19T03:36:22;21.75;;;9.30;;
31308;SDS011;17936;52.446;10.840;2022-08-19T03:38:51;13.93;;;8.88;;
31308;SDS011;17936;52.446;10.840;2022-08-19T03:41:23;12.73;;;8.38;;
31308;SDS011;17936;52.446;10.840;2022-08-19T03:43:51;12.95;;;7.95;;
31308;SDS011;17936;52.446;10.840;2022-08-19T03:46:19;12.05;;;7.78;;
31308;SDS011;17936;52.446;10.840;2022-08-19T03:48:47;12.60;;;7.88;;
31308;SDS011;17936;52.446;10.840;2022-08-19T03:51:26;10.90;;;7.57;;
31308;SDS011;17936;52.446;10.840;2022-08-19T03:53:55;11.65;;;8.10;;
31308;SDS011;17936;52.446;10.840;2022-08-19T03:56:22;11.95;;;7.65;;
31308;SDS011;17936;52.446;10.840;2022-08-19T03:58:50;13.48;;;7.93;;
31308;SDS011;17936;52.446;10.840;2022-08-19T04:01:17;15.35;;;7.88;;
31308;SDS011;17936;52.446;10.840;2022-08-19T04:03:45;9.85;;;7.60;;
31308;SDS011;17936;52.446;10.840;2022-08-19T04:08:42;12.55;;;7.13;;
31308;SDS011;17936;52.446;10.840;2022-08-19T04:11:09;11.57;;;6.50;;
31308;SDS011;17936;52.446;10.840;2022-08-19T04:13:40;10.38;;;6.72;;
31308;SDS011;17936;52.446;10.840;2022-08-19T04:16:07;14.13;;;7.60;;
31308;SDS011;17936;52.446;10.840;2022-08-19T04:18:34;10.70;;;7.20;;
31308;SDS011;17936;52.446;10.840;2022-08-19T04:20:59;13.68;;;7.32;;
31308;SDS011;17936;52.446;10.840;2022-08-19T04:23:25;11.50;;;7.47;;
31308;SDS011;17936;52.446;10.840;2022-08-19T04:25:53;11.40;;;6.28;;
31308;SDS011;17936;52.446;10.840;2022-08-19T04:28:19;13.52;;;6.72;;
31308;SDS011;17936;52.446;10.840;2022-08-19T04:30:46;10.85;;;6.35;;
31308;SDS011;17936;52.446;10.840;2022-08-19T04:33:15;15.52;;;6.57;;
31308;SDS011;17936;52.446;10.840;2022-08-19T04:35:44;12.55;;;7.40;;
31308;SDS011;17936;52.446;10.840;2022-08-19T04:38:12;9.20;;;6.75;;
31308;SDS011;17936;52.446;10.840;2022-08-19T04:40:41;12.32;;;6.47;;
31308;SDS011;17936;52.446;10.840;2022-08-19T04:43:27;12.32;;;6.85;;
31308;SDS011;17936;52.446;10.840;2022-08-19T04:45:53;11.93;;;6.20;;
31308;SDS011;17936;52.446;10.840;2022-08-19T04:48:18;9.77;;;6.45;;
31308;SDS011;17936;52.446;10.840;2022-08-19T04:50:52;9.80;;;6.57;;
31308;SDS011;17936;52.446;10.840;2022-08-19T04:53:22;14.20;;;6.20;;
31308;SDS011;17936;52.446;10.840;2022-08-19T04:55:53;13.93;;;6.72;;
31308;SDS011;17936;52.446;10.840;2022-08-19T04:58:19;9.23;;;6.05;;
31308;SDS011;17936;52.446;10.840;2022-08-19T05:00:45;10.85;;;6.38;;
31308;SDS011;17936;52.446;10.840;2022-08-19T05:03:10;14.85;;;6.32;;
31308;SDS011;17936;52.446;10.840;2022-08-19T05:05:42;7.68;;;5.72;;
31308;SDS011;17936;52.446;10.840;2022-08-19T05:08:09;10.85;;;6.25;;
31308;SDS011;17936;52.446;10.840;2022-08-19T05:10:36;10.63;;;5.88;;
31308;SDS011;17936;52.446;10.840;2022-08-19T05:13:03;12.95;;;6.25;;
31308;SDS011;17936;52.446;10.840;2022-08-19T05:15:29;10.57;;;5.65;;
31308;SDS011;17936;52.446;10.840;2022-08-19T05:17:55;9.13;;;5.78;;
31308;SDS011;17936;52.446;10.840;2022-08-19T05:20:39;8.95;;;5.60;;
31308;SDS011;17936;52.446;10.840;2022-08-19T05:23:23;9.15;;;5.90;;
31308;SDS011;17936;52.446;10.840;2022-08-19T05:25:49;8.88;;;5.43;;
31308;SDS011;17936;52.446;10.840;2022-08-19T05:28:15;10.80;;;5.80;;
31308;SDS011;17936;52.446;10.840;2022-08-19T05:30:41;9.05;;;5.53;;
31308;SDS011;17936;52.446;10.840;2022-08-19T05:33:08;7.72;;;5.50;;
31308;SDS011;17936;52.446;10.840;2022-08-19T05:35:35;10.15;;;5.35;;
31308;SDS011;17936;52.446;10.840;2022-08-19T05:38:02;10.10;;;6.35;;
31308;SDS011;17936;52.446;10.840;2022-08-19T05:40:28;12.10;;;6.40;;
31308;SDS011;17936;52.446;10.840;2022-08-19T05:42:53;9.95;;;6.47;;
31308;SDS011;17936;52.446;10.840;2022-08-19T05:45:19;7.72;;;5.68;;
31308;SDS011;17936;52.446;10.840;2022-08-19T05:47:46;10.52;;;6.03;;
31308;SDS011;17936;52.446;10.840;2022-08-19T05:50:12;8.77;;;6.25;;
31308;SDS011;17936;52.446;10.840;2022-08-19T05:52:38;9.32;;;6.00;;
31308;SDS011;17936;52.446;10.840;2022-08-19T05:55:04;10.77;;;5.63;;
31308;SDS011;17936;52.446;10.840;2022-08-19T05:57:30;7.95;;;5.88;;
31308;SDS011;17936;52.446;10.840;2022-08-19T05:59:56;9.50;;;5.88;;
31308;SDS011;17936;52.446;10.840;2022-08-19T06:02:22;13.63;;;5.97;;
31308;SDS011;17936;52.446;10.840;2022-08-19T06:04:48;10.07;;;6.35;;
31308;SDS011;17936;52.446;10.840;2022-08-19T06:07:14;9.57;;;6.10;;
31308;SDS011;17936;52.446;10.840;2022-08-19T06:09:40;11.05;;;6.50;;
31308;SDS011;17936;52.446;10.840;2022-08-19T06:12:06;9.95;;;6.93;;
31308;SDS011;17936;52.446;10.840;2022-08-19T06:14:32;15.60;;;7.22;;
31308;SDS011;17936;52.446;10.840;2022-08-19T06:16:59;11.07;;;6.30;;
31308;SDS011;17936;52.446;10.840;2022-08-19T06:19:27;9.82;;;6.63;;
31308;SDS011;17936;52.446;10.840;2022-08-19T06:21:54;9.95;;;6.25;;
31308;SDS011;17936;52.446;10.840;2022-08-19T06:24:22;11.48;;;6.03;;
31308;SDS011;17936;52.446;10.840;2022-08-19T06:26:50;14.50;;;6.43;;
31308;SDS011;17936;52.446;10.840;2022-08-19T06:29:18;12.02;;;6.10;;
31308;SDS011;17936;52.446;10.840;2022-08-19T06:31:46;8.32;;;6.00;;
31308;SDS011;17936;52.446;10.840;2022-08-19T06:34:14;8.23;;;5.55;;
31308;SDS011;17936;52.446;10.840;2022-08-19T06:36:42;12.68;;;6.60;;
31308;SDS011;17936;52.446;10.840;2022-08-19T06:39:11;7.70;;;5.47;;
31308;SDS011;17936;52.446;10.840;2022-08-19T06:41:42;9.35;;;5.28;;
31308;SDS011;17936;52.446;10.840;2022-08-19T06:44:10;10.15;;;6.00;;
31308;SDS011;17936;52.446;10.840;2022-08-19T06:46:38;10.05;;;6.32;;
31308;SDS011;17936;52.446;10.840;2022-08-19T06:49:04;8.60;;;5.40;;
31308;SDS011;17936;52.446;10.840;2022-08-19T06:51:34;11.38;;;6.40;;
31308;SDS011;17936;52.446;10.840;2022-08-19T06:53:59;7.90;;;5.70;;
31308;SDS011;17936;52.446;10.840;2022-08-19T06:56:28;10.80;;;5.80;;
31308;SDS011;17936;52.446;10.840;2022-08-19T06:58:58;8.52;;;5.75;;
31308;SDS011;17936;52.446;10.840;2022-08-19T07:01:25;10.18;;;6.18;;
31308;SDS011;17936;52.446;10.840;2022-08-19T07:03:50;9.00;;;5.90;;
31308;SDS011;17936;52.446;10.840;2022-08-19T07:06:16;8.73;;;6.13;;
31308;SDS011;17936;52.446;10.840;2022-08-19T07:08:45;11.07;;;6.57;;
31308;SDS011;17936;52.446;10.840;2022-08-19T07:11:12;10.68;;;5.95;;
31308;SDS011;17936;52.446;10.840;2022-08-19T07:13:40;12.13;;;6.35;;
31308;SDS011;17936;52.446;10.840;2022-08-19T07:16:09;10.98;;;6.07;;
31308;SDS011;17936;52.446;10.840;2022-08-19T07:18:36;12.77;;;6.13;;
31308;SDS011;17936;52.446;10.840;2022-08-19T07:21:10;9.98;;;5.53;;
31308;SDS011;17936;52.446;10.840;2022-08-19T07:23:37;9.38;;;6.00;;
31308;SDS011;17936;52.446;10.840;2022-08-19T07:26:13;10.65;;;5.95;;
31308;SDS011;17936;52.446;10.840;2022-08-19T07:28:47;14.85;;;6.45;;
31308;SDS011;17936;52.446;10.840;2022-08-19T07:31:15;8.95;;;5.70;;
31308;SDS011;17936;52.446;10.840;2022-08-19T07:33:43;13.32;;;6.15;;
31308;SDS011;17936;52.446;10.840;2022-08-19T07:36:11;7.97;;;5.03;;
31308;SDS011;17936;52.446;10.840;2022-08-19T07:38:38;17.85;;;6.40;;
31308;SDS011;17936;52.446;10.840;2022-08-19T07:41:10;10.07;;;5.60;;
31308;SDS011;17936;52.446;10.840;2022-08-19T07:43:38;12.32;;;5.53;;
31308;SDS011;17936;52.446;10.840;2022-08-19T07:46:04;8.20;;;6.18;;
31308;SDS011;17936;52.446;10.840;2022-08-19T07:48:30;10.32;;;5.72;;
31308;SDS011;17936;52.446;10.840;2022-08-19T07:50:57;9.98;;;5.88;;
31308;SDS011;17936;52.446;10.840;2022-08-19T07:53:28;10.43;;;6.18;;
31308;SDS011;17936;52.446;10.840;2022-08-19T07:55:56;12.93;;;6.38;;
31308;SDS011;17936;52.446;10.840;2022-08-19T07:58:29;11.43;;;6.05;;
31308;SDS011;17936;52.446;10.840;2022-08-19T08:00:56;8.65;;;5.78;;
31308;SDS011;17936;52.446;10.840;2022-08-19T08:03:22;8.82;;;6.00;;
31308;SDS011;17936;52.446;10.840;2022-08-19T08:06:08;13.43;;;6.35;;
31308;SDS011;17936;52.446;10.840;2022-08-19T08:08:52;17.10;;;6.20;;
31308;SDS011;17936;52.446;10.840;2022-08-19T08:11:41;13.73;;;6.60;;
31308;SDS011;17936;52.446;10.840;2022-08-19T08:14:13;10.65;;;6.03;;
31308;SDS011;17936;52.446;10.840;2022-08-19T08:16:44;11.27;;;5.70;;
31308;SDS011;17936;52.446;10.840;2022-08-19T08:19:11;10.27;;;6.20;;
31308;SDS011;17936;52.446;10.840;2022-08-19T08:21:39;10.60;;;5.90;;
31308;SDS011;17936;52.446;10.840;2022-08-19T08:24:06;13.23;;;7.35;;
31308;SDS011;17936;52.446;10.840;2022-08-19T08:26:31;11.20;;;6.35;;
31308;SDS011;17936;52.446;10.840;2022-08-19T08:28:57;7.78;;;6.22;;
31308;SDS011;17936;52.446;10.840;2022-08-19T08:31:23;8.77;;;5.75;;
31308;SDS011;17936;52.446;10.840;2022-08-19T08:33:48;10.60;;;5.65;;
31308;SDS011;17936;52.446;10.840;2022-08-19T08:36:14;7.60;;;5.75;;
31308;SDS011;17936;52.446;10.840;2022-08-19T08:38:41;9.60;;;5.90;;
31308;SDS011;17936;52.446;10.840;2022-08-19T08:41:19;12.50;;;5.43;;
31308;SDS011;17936;52.446;10.840;2022-08-19T08:43:48;10.27;;;5.93;;
31308;SDS011;17936;52.446;10.840;2022-08-19T08:46:59;6.75;;;4.93;;
31308;SDS011;17936;52.446;10.840;2022-08-19T08:49:47;9.95;;;5.97;;
31308;SDS011;17936;52.446;10.840;2022-08-19T08:52:11;8.45;;;6.03;;
31308;SDS011;17936;52.446;10.840;2022-08-19T08:54:50;9.68;;;5.70;;
31308;SDS011;17936;52.446;10.840;2022-08-19T08:57:22;9.02;;;5.32;;
31308;SDS011;17936;52.446;10.840;2022-08-19T08:59:56;9.75;;;5.28;;
31308;SDS011;17936;52.446;10.840;2022-08-19T09:02:24;8.25;;;5.10;;
31308;SDS011;17936;52.446;10.840;2022-08-19T09:04:51;8.70;;;5.45;;
31308;SDS011;17936;52.446;10.840;2022-08-19T09:07:22;8.10;;;5.10;;
31308;SDS011;17936;52.446;10.840;2022-08-19T09:09:51;8.98;;;5.25;;
31308;SDS011;17936;52.446;10.840;2022-08-19T09:12:25;8.60;;;5.50;;
31308;SDS011;17936;52.446;10.840;2022-08-19T09:15:28;8.45;;;5.22;;
31308;SDS011;17936;52.446;10.840;2022-08-19T09:18:01;12.25;;;5.40;;
31308;SDS011;17936;52.446;10.840;2022-08-19T09:20:28;10.75;;;6.18;;
31308;SDS011;17936;52.446;10.840;2022-08-19T09:22:54;8.38;;;5.55;;
31308;SDS011;17936;52.446;10.840;2022-08-19T09:25:20;7.90;;;4.93;;
31308;SDS011;17936;52.446;10.840;2022-08-19T09:27:48;9.43;;;5.10;;
31308;SDS011;17936;52.446;10.840;2022-08-19T09:30:16;10.07;;;5.35;;
31308;SDS011;17936;52.446;10.840;2022-08-19T09:32:48;9.13;;;5.22;;
31308;SDS011;17936;52.446;10.840;2022-08-19T09:35:17;9.35;;;5.38;;
31308;SDS011;17936;52.446;10.840;2022-08-19T09:37:43;7.22;;;5.18;;
31308;SDS011;17936;52.446;10.840;2022-08-19T09:40:09;11.55;;;5.78;;
31308;SDS011;17936;52.446;10.840;2022-08-19T09:42:37;10.20;;;5.75;;
31308;SDS011;17936;52.446;10.840;2022-08-19T09:45:02;12.90;;;5.60;;
31308;SDS011;17936;52.446;10.840;2022-08-19T09:47:29;10.27;;;5.93;;
31308;SDS011;17936;52.446;10.840;2022-08-19T09:49:54;8.00;;;5.68;;
31308;SDS011;17936;52.446;10.840;2022-08-19T09:52:20;9.25;;;6.05;;
31308;SDS011;17936;52.446;10.840;2022-08-19T09:54:46;9.43;;;5.72;;
31308;SDS011;17936;52.446;10.840;2022-08-19T09:57:11;10.18;;;5.47;;
31308;SDS011;17936;52.446;10.840;2022-08-19T09:59:38;8.93;;;5.93;;
31308;SDS011;17936;52.446;10.840;2022-08-19T10:02:04;11.88;;;5.65;;
31308;SDS011;17936;52.446;10.840;2022-08-19T10:04:29;12.50;;;5.80;;
31308;SDS011;17936;52.446;10.840;2022-08-19T10:07:14;7.95;;;4.63;;
31308;SDS011;17936;52.446;10.840;2022-08-19T10:09:40;8.85;;;5.05;;
31308;SDS011;17936;52.446;10.840;2022-08-19T10:12:06;9.63;;;4.43;;
31308;SDS011;17936;52.446;10.840;2022-08-19T10:14:32;7.18;;;5.18;;
31308;SDS011;17936;52.446;10.840;2022-08-19T10:16:58;7.85;;;4.93;;
31308;SDS011;17936;52.446;10.840;2022-08-19T10:19:25;8.02;;;5.40;;
31308;SDS011;17936;52.446;10.840;2022-08-19T10:21:51;9.07;;;5.00;;
31308;SDS011;17936;52.446;10.840;2022-08-19T10:24:17;9.55;;;4.70;;
31308;SDS011;17936;52.446;10.840;2022-08-19T10:26:42;13.63;;;5.03;;
31308;SDS011;17936;52.446;10.840;2022-08-19T10:29:11;7.72;;;4.82;;
31308;SDS011;17936;52.446;10.840;2022-08-19T10:31:36;6.13;;;4.32;;
31308;SDS011;17936;52.446;10.840;2022-08-19T10:34:03;8.65;;;4.55;;
31308;SDS011;17936;52.446;10.840;2022-08-19T10:36:30;10.30;;;5.38;;
31308;SDS011;17936;52.446;10.840;2022-08-19T10:39:00;11.45;;;5.32;;
31308;SDS011;17936;52.446;10.840;2022-08-19T10:41:28;6.47;;;4.78;;
31308;SDS011;17936;52.446;10.840;2022-08-19T10:44:00;9.32;;;4.82;;
31308;SDS011;17936;52.446;10.840;2022-08-19T10:46:28;7.93;;;4.70;;
31308;SDS011;17936;52.446;10.840;2022-08-19T10:48:57;8.10;;;4.53;;
31308;SDS011;17936;52.446;10.840;2022-08-19T10:51:23;7.47;;;4.80;;
31308;SDS011;17936;52.446;10.840;2022-08-19T10:54:07;9.35;;;5.40;;
31308;SDS011;17936;52.446;10.840;2022-08-19T10:56:33;13.23;;;4.85;;
31308;SDS011;17936;52.446;10.840;2022-08-19T10:59:24;9.65;;;4.13;;
31308;SDS011;17936;52.446;10.840;2022-08-19T11:01:52;7.00;;;4.97;;
31308;SDS011;17936;52.446;10.840;2022-08-19T11:04:19;7.80;;;5.47;;
31308;SDS011;17936;52.446;10.840;2022-08-19T11:06:47;8.27;;;4.95;;
31308;SDS011;17936;52.446;10.840;2022-08-19T11:09:14;9.95;;;4.75;;
31308;SDS011;17936;52.446;10.840;2022-08-19T11:11:50;10.13;;;5.22;;
31308;SDS011;17936;52.446;10.840;2022-08-19T11:14:18;9.18;;;4.82;;
31308;SDS011;17936;52.446;10.840;2022-08-19T11:16:45;6.75;;;4.20;;
31308;SDS011;17936;52.446;10.840;2022-08-19T11:19:15;7.78;;;4.35;;
31308;SDS011;17936;52.446;10.840;2022-08-19T11:21:44;9.77;;;4.35;;
31308;SDS011;17936;52.446;10.840;2022-08-19T11:24:13;9.07;;;5.80;;
31308;SDS011;17936;52.446;10.840;2022-08-19T11:26:41;6.82;;;4.38;;
31308;SDS011;17936;52.446;10.840;2022-08-19T11:29:09;8.00;;;4.60;;
31308;SDS011;17936;52.446;10.840;2022-08-19T11:31:37;7.32;;;4.63;;
31308;SDS011;17936;52.446;10.840;2022-08-19T11:34:05;9.00;;;5.28;;
31308;SDS011;17936;52.446;10.840;2022-08-19T11:36:33;6.50;;;4.63;;
31308;SDS011;17936;52.446;10.840;2022-08-19T11:38:59;8.95;;;4.15;;
31308;SDS011;17936;52.446;10.840;2022-08-19T11:41:26;9.73;;;5.00;;
31308;SDS011;17936;52.446;10.840;2022-08-19T11:43:52;8.25;;;5.28;;
31308;SDS011;17936;52.446;10.840;2022-08-19T11:46:20;11.27;;;5.00;;
31308;SDS011;17936;52.446;10.840;2022-08-19T11:48:47;8.07;;;4.78;;
31308;SDS011;17936;52.446;10.840;2022-08-19T11:51:16;9.00;;;5.18;;
31308;SDS011;17936;52.446;10.840;2022-08-19T11:53:44;9.68;;;5.43;;
31308;SDS011;17936;52.446;10.840;2022-08-19T11:56:10;8.30;;;4.03;;
31308;SDS011;17936;52.446;10.840;2022-08-19T11:58:36;6.70;;;4.03;;
31308;SDS011;17936;52.446;10.840;2022-08-19T12:01:07;5.45;;;3.65;;
31308;SDS011;17936;52.446;10.840;2022-08-19T12:03:33;6.47;;;4.85;;
31308;SDS011;17936;52.446;10.840;2022-08-19T12:06:03;5.82;;;3.38;;
31308;SDS011;17936;52.446;10.840;2022-08-19T12:08:33;5.38;;;3.75;;
31308;SDS011;17936;52.446;10.840;2022-08-19T12:10:59;9.23;;;5.03;;
31308;SDS011;17936;52.446;10.840;2022-08-19T12:13:28;7.28;;;4.40;;
31308;SDS011;17936;52.446;10.840;2022-08-19T12:15:57;7.72;;;5.00;;
31308;SDS011;17936;52.446;10.840;2022-08-19T12:18:26;9.32;;;4.18;;
31308;SDS011;17936;52.446;10.840;2022-08-19T12:20:52;5.05;;;3.70;;
31308;SDS011;17936;52.446;10.840;2022-08-19T12:23:19;13.50;;;3.53;;
31308;SDS011;17936;52.446;10.840;2022-08-19T12:25:46;7.43;;;3.38;;
31308;SDS011;17936;52.446;10.840;2022-08-19T12:28:16;5.07;;;3.67;;
31308;SDS011;17936;52.446;10.840;2022-08-19T12:30:43;6.72;;;4.03;;
31308;SDS011;17936;52.446;10.840;2022-08-19T12:33:09;10.35;;;4.20;;
31308;SDS011;17936;52.446;10.840;2022-08-19T12:35:34;5.55;;;3.53;;
31308;SDS011;17936;52.446;10.840;2022-08-19T12:38:00;7.22;;;3.80;;
31308;SDS011;17936;52.446;10.840;2022-08-19T12:40:27;7.78;;;3.35;;
31308;SDS011;17936;52.446;10.840;2022-08-19T12:42:53;7.55;;;4.07;;
31308;SDS011;17936;52.446;10.840;2022-08-19T12:45:20;8.50;;;3.95;;
31308;SDS011;17936;52.446;10.840;2022-08-19T12:47:46;6.28;;;3.33;;
31308;SDS011;17936;52.446;10.840;2022-08-19T12:50:12;4.68;;;3.30;;
31308;SDS011;17936;52.446;10.840;2022-08-19T12:52:38;5.07;;;3.08;;
31308;SDS011;17936;52.446;10.840;2022-08-19T12:55:04;10.05;;;3.65;;
31308;SDS011;17936;52.446;10.840;2022-08-19T12:57:31;6.03;;;4.32;;
31308;SDS011;17936;52.446;10.840;2022-08-19T13:00:00;6.70;;;3.83;;
31308;SDS011;17936;52.446;10.840;2022-08-19T13:02:30;6.45;;;3.47;;
31308;SDS011;17936;52.446;10.840;2022-08-19T13:04:57;6.03;;;4.00;;
31308;SDS011;17936;52.446;10.840;2022-08-19T13:07:23;6.22;;;3.42;;
31308;SDS011;17936;52.446;10.840;2022-08-19T13:09:50;6.63;;;3.78;;
31308;SDS011;17936;52.446;10.840;2022-08-19T13:12:16;5.38;;;3.75;;
31308;SDS011;17936;52.446;10.840;2022-08-19T13:14:45;6.45;;;3.20;;
31308;SDS011;17936;52.446;10.840;2022-08-19T13:17:15;4.35;;;3.33;;
31308;SDS011;17936;52.446;10.840;2022-08-19T13:19:41;6.57;;;3.38;;
31308;SDS011;17936;52.446;10.840;2022-08-19T13:22:07;5.45;;;3.13;;
31308;SDS011;17936;52.446;10.840;2022-08-19T13:24:32;6.63;;;3.60;;
31308;SDS011;17936;52.446;10.840;2022-08-19T13:26:58;6.55;;;3.63;;
31308;SDS011;17936;52.446;10.840;2022-08-19T13:29:24;7.65;;;4.32;;
31308;SDS011;17936;52.446;10.840;2022-08-19T13:32:09;5.97;;;3.90;;
31308;SDS011;17936;52.446;10.840;2022-08-19T13:34:53;5.10;;;3.25;;
31308;SDS011;17936;52.446;10.840;2022-08-19T13:37:19;6.70;;;3.05;;
31308;SDS011;17936;52.446;10.840;2022-08-19T13:40:04;6.28;;;3.42;;
31308;SDS011;17936;52.446;10.840;2022-08-19T13:42:30;4.80;;;3.13;;
31308;SDS011;17936;52.446;10.840;2022-08-19T13:44:57;10.18;;;3.45;;
31308;SDS011;17936;52.446;10.840;2022-08-19T13:47:23;8.82;;;3.15;;
31308;SDS011;17936;52.446;10.840;2022-08-19T13:49:49;7.65;;;3.58;;
31308;SDS011;17936;52.446;10.840;2022-08-19T13:52:14;4.78;;;3.13;;
31308;SDS011;17936;52.446;10.840;2022-08-19T13:54:40;6.38;;;3.47;;
31308;SDS011;17936;52.446;10.840;2022-08-19T13:57:06;8.02;;;4.35;;
31308;SDS011;17936;52.446;10.840;2022-08-19T13:59:31;5.05;;;3.53;;
31308;SDS011;17936;52.446;10.840;2022-08-19T14:01:58;4.75;;;3.42;;
31308;SDS011;17936;52.446;10.840;2022-08-19T14:04:24;8.43;;;3.42;;
31308;SDS011;17936;52.446;10.840;2022-08-19T14:06:49;4.60;;;3.22;;
31308;SDS011;17936;52.446;10.840;2022-08-19T14:09:15;11.20;;;3.92;;
31308;SDS011;17936;52.446;10.840;2022-08-19T14:11:40;6.13;;;3.75;;
31308;SDS011;17936;52.446;10.840;2022-08-19T14:14:06;8.32;;;4.20;;
31308;SDS011;17936;52.446;10.840;2022-08-19T14:16:31;5.82;;;3.42;;
31308;SDS011;17936;52.446;10.840;2022-08-19T14:18:57;5.60;;;3.45;;
31308;SDS011;17936;52.446;10.840;2022-08-19T14:21:23;5.05;;;3.55;;
31308;SDS011;17936;52.446;10.840;2022-08-19T14:23:49;4.90;;;3.58;;
31308;SDS011;17936;52.446;10.840;2022-08-19T14:26:16;5.13;;;4.00;;
31308;SDS011;17936;52.446;10.840;2022-08-19T14:28:43;6.80;;;3.72;;
31308;SDS011;17936;52.446;10.840;2022-08-19T14:31:10;4.47;;;3.30;;
31308;SDS011;17936;52.446;10.840;2022-08-19T14:33:36;5.72;;;3.17;;
31308;SDS011;17936;52.446;10.840;2022-08-19T14:36:03;5.45;;;3.15;;